Time;durP1;ratioP1;P1;durP2;ratioP2;P2;SDS_P1;SDS_P2;PMS_P1;PMS_P2;Temp;Humidity;BMP_temperature;BMP_pressure;BME280_temperature;BME280_humidity;BME280_pressure;Samples;Min_cycle;Max_cycle;Signal;HPM_P1;HPM_P2
2023/11/17 00:01:35;;;;;;;2.08;1.30;;;7.90;99.90;;;;;;5008702;28;20227;-90
2023/11/17 00:04:02;;;;;;;1.58;1.20;;;7.90;99.90;;;;;;5006631;28;20278;-90
2023/11/17 00:06:35;;;;;;;1.85;1.13;;;8.00;99.90;;;;;;5011612;28;20196;-90
2023/11/17 00:09:05;;;;;;;1.55;0.98;;;8.10;99.90;;;;;;4988808;28;20573;-90
2023/11/17 00:11:34;;;;;;;1.40;1.13;;;8.10;99.90;;;;;;5017856;28;20211;-90
2023/11/17 00:14:01;;;;;;;1.30;1.20;;;8.00;99.90;;;;;;5007503;28;20282;-90
2023/11/17 00:16:28;;;;;;;1.13;1.00;;;8.00;99.90;;;;;;4994687;28;20213;-90
2023/11/17 00:18:55;;;;;;;1.63;1.10;;;8.10;99.90;;;;;;4978767;28;20282;-90
2023/11/17 00:21:22;;;;;;;1.30;1.00;;;8.10;99.90;;;;;;5013678;28;20203;-90
2023/11/17 00:23:50;;;;;;;3.47;1.00;;;8.10;99.90;;;;;;5011718;28;20262;-91
2023/11/17 00:26:18;;;;;;;1.10;1.00;;;8.20;99.90;;;;;;5005857;28;20212;-90
2023/11/17 00:28:45;;;;;;;1.40;1.10;;;8.20;99.90;;;;;;5002905;28;20675;-90
2023/11/17 00:31:13;;;;;;;1.67;1.42;;;8.20;99.90;;;;;;4985489;28;20217;-90
2023/11/17 00:33:42;;;;;;;1.50;1.40;;;8.30;99.90;;;;;;5005772;28;20305;-90
2023/11/17 00:36:10;;;;;;;1.50;1.40;;;8.30;99.90;;;;;;4974425;28;20269;-90
2023/11/17 00:38:37;;;;;;;1.73;1.30;;;8.30;99.90;;;;;;4980164;28;20203;-90
2023/11/17 00:43:47;;;;;;;1.23;1.13;;;8.10;99.90;;;;;;4984642;28;20215;-90
2023/11/17 00:46:13;;;;;;;1.00;1.00;;;8.10;99.90;;;;;;5005815;28;20206;-91
2023/11/17 00:48:40;;;;;;;1.38;1.27;;;8.10;99.90;;;;;;4987078;28;20200;-91
2023/11/17 00:51:07;;;;;;;1.15;1.05;;;8.00;99.90;;;;;;4987143;28;20227;-90
2023/11/17 00:53:34;;;;;;;1.23;1.13;;;7.90;99.90;;;;;;5005271;28;20214;-91
2023/11/17 00:56:04;;;;;;;1.10;1.00;;;7.90;99.90;;;;;;5018169;28;20263;-90
2023/11/17 00:58:32;;;;;;;1.20;1.10;;;7.90;99.90;;;;;;4989858;28;20632;-90
2023/11/17 01:00:59;;;;;;;1.20;1.10;;;7.90;99.90;;;;;;5018095;28;20206;-90
2023/11/17 01:03:27;;;;;;;1.30;1.20;;;7.90;99.90;;;;;;5006792;28;20222;-90
2023/11/17 01:05:55;;;;;;;1.15;1.15;;;7.80;99.90;;;;;;5010985;28;20199;-90
2023/11/17 01:08:21;;;;;;;1.77;1.67;;;7.80;99.90;;;;;;5006478;28;20195;-91
2023/11/17 01:10:50;;;;;;;2.10;1.90;;;7.70;99.90;;;;;;4983420;28;20196;-90
2023/11/17 01:13:17;;;;;;;2.42;2.22;;;7.60;99.90;;;;;;5014405;28;20199;-91
2023/11/17 01:15:45;;;;;;;2.10;1.90;;;7.60;99.90;;;;;;5005622;28;20195;-90
2023/11/17 01:18:12;;;;;;;2.65;2.05;;;7.40;99.90;;;;;;5006150;28;20196;-90
2023/11/17 01:20:40;;;;;;;2.03;1.93;;;7.30;99.90;;;;;;5011667;28;20550;-90
2023/11/17 01:23:08;;;;;;;2.00;1.90;;;7.30;99.90;;;;;;4971770;28;20275;-90
2023/11/17 01:25:36;;;;;;;2.40;2.20;;;7.30;99.90;;;;;;5010269;28;20333;-90
2023/11/17 01:28:03;;;;;;;2.67;1.90;;;7.30;99.90;;;;;;5006396;28;20196;-90
2023/11/17 01:30:32;;;;;;;1.90;1.73;;;7.20;99.90;;;;;;5003338;28;20235;-90
2023/11/17 01:33:01;;;;;;;1.20;1.20;;;7.10;99.90;;;;;;5007233;28;20206;-90
2023/11/17 01:35:28;;;;;;;1.53;1.30;;;7.00;99.90;;;;;;5012402;28;20219;-90
2023/11/17 01:37:55;;;;;;;2.07;0.90;;;6.90;99.90;;;;;;5007712;28;20233;-90
2023/11/17 01:40:23;;;;;;;1.00;1.00;;;6.80;99.90;;;;;;4986423;28;20695;-88
2023/11/17 01:42:51;;;;;;;0.97;0.97;;;6.60;99.90;;;;;;5004087;28;20227;-88
2023/11/17 01:45:18;;;;;;;0.90;0.90;;;6.50;99.90;;;;;;5013263;28;20200;-87
2023/11/17 01:47:46;;;;;;;1.00;1.00;;;6.40;99.90;;;;;;5011437;28;20232;-87
2023/11/17 01:50:15;;;;;;;0.90;0.90;;;6.30;99.90;;;;;;5004596;28;20208;-89
2023/11/17 01:52:43;;;;;;;1.17;1.17;;;6.40;99.90;;;;;;5011479;28;20293;-87
2023/11/17 01:55:11;;;;;;;0.90;0.90;;;6.40;99.90;;;;;;5013688;28;20203;-87
2023/11/17 01:57:39;;;;;;;1.00;1.00;;;6.20;99.90;;;;;;4986647;28;20559;-88
2023/11/17 02:00:13;;;;;;;1.50;1.40;;;6.10;99.90;;;;;;4999529;28;20716;-88
2023/11/17 02:02:43;;;;;;;1.33;1.23;;;6.00;99.90;;;;;;5002390;28;20226;-87
2023/11/17 02:05:11;;;;;;;1.20;1.10;;;6.00;99.90;;;;;;4991074;28;20201;-88
2023/11/17 02:07:50;;;;;;;1.13;1.13;;;6.00;99.90;;;;;;5008885;28;20201;-87
2023/11/17 02:10:24;;;;;;;1.17;1.10;;;5.90;99.90;;;;;;4986591;28;20195;-87
2023/11/17 02:12:59;;;;;;;1.20;1.20;;;5.80;99.90;;;;;;5006915;28;20214;-88
2023/11/17 02:15:33;;;;;;;0.93;0.93;;;5.70;99.90;;;;;;5002627;28;20262;-88
2023/11/17 02:18:04;;;;;;;0.97;0.90;;;5.60;99.90;;;;;;5013480;28;20282;-88
2023/11/17 02:20:34;;;;;;;1.73;1.30;;;5.60;99.90;;;;;;5003087;28;20214;-88
2023/11/17 02:23:10;;;;;;;0.90;0.90;;;5.50;99.90;;;;;;4995521;28;20653;-89
2023/11/17 02:25:46;;;;;;;0.93;0.93;;;5.50;99.90;;;;;;5003953;28;20214;-88
2023/11/17 02:28:27;;;;;;;0.80;0.80;;;5.40;99.90;;;;;;5001455;28;20199;-88
2023/11/17 02:30:57;;;;;;;0.83;0.83;;;5.30;99.90;;;;;;5013597;28;20266;-88
2023/11/17 02:33:25;;;;;;;1.30;1.20;;;5.20;99.90;;;;;;5005512;28;20226;-89
2023/11/17 02:35:56;;;;;;;1.00;1.00;;;5.20;99.90;;;;;;5008948;28;20218;-88
2023/11/17 02:38:23;;;;;;;1.27;1.17;;;5.20;99.90;;;;;;5009113;28;20208;-89
2023/11/17 02:40:55;;;;;;;1.10;1.10;;;5.10;99.90;;;;;;5002935;28;20215;-88
2023/11/17 02:43:23;;;;;;;1.47;0.93;;;5.00;99.90;;;;;;4987388;28;20254;-88
2023/11/17 02:45:52;;;;;;;1.17;1.17;;;4.90;99.90;;;;;;4986200;28;20204;-88
2023/11/17 02:48:22;;;;;;;0.90;0.90;;;5.00;99.90;;;;;;5002865;28;20246;-88
2023/11/17 02:51:03;;;;;;;1.03;1.00;;;5.00;99.90;;;;;;5002765;28;20322;-88
2023/11/17 02:53:32;;;;;;;1.53;0.93;;;4.90;99.90;;;;;;5001593;28;20286;-88
2023/11/17 02:56:01;;;;;;;1.20;1.10;;;4.80;99.90;;;;;;5003309;28;20200;-88
2023/11/17 02:58:32;;;;;;;1.20;1.10;;;4.80;99.90;;;;;;5007038;28;20199;-88
2023/11/17 03:01:01;;;;;;;1.10;1.10;;;4.80;99.90;;;;;;4987424;28;20301;-88
2023/11/17 03:03:29;;;;;;;1.00;1.00;;;4.80;99.90;;;;;;5004453;28;20759;-88
2023/11/17 03:05:58;;;;;;;1.20;1.10;;;4.80;99.90;;;;;;5008151;28;20204;-88
2023/11/17 03:08:26;;;;;;;1.50;1.40;;;4.70;99.90;;;;;;4985440;28;20203;-88
2023/11/17 03:11:00;;;;;;;1.03;1.03;;;4.70;99.90;;;;;;5005617;28;20274;-88
2023/11/17 03:13:27;;;;;;;1.23;1.03;;;4.70;99.90;;;;;;5003515;28;20199;-88
2023/11/17 03:15:54;;;;;;;0.87;0.87;;;4.80;99.90;;;;;;5009247;28;20195;-88
2023/11/17 03:18:26;;;;;;;0.90;0.90;;;4.70;99.90;;;;;;5003700;28;20199;-88
2023/11/17 03:20:54;;;;;;;0.80;0.80;;;4.70;99.90;;;;;;4992786;28;20243;-88
2023/11/17 03:23:22;;;;;;;0.83;0.83;;;4.60;99.90;;;;;;5006535;28;20265;-88
2023/11/17 03:25:49;;;;;;;0.90;0.90;;;4.60;99.90;;;;;;5010666;28;20200;-88
2023/11/17 03:28:17;;;;;;;1.00;1.00;;;4.60;99.90;;;;;;4984611;28;20284;-87
2023/11/17 03:30:44;;;;;;;1.17;1.17;;;4.70;99.90;;;;;;5002886;28;20699;-88
2023/11/17 03:33:11;;;;;;;1.03;1.03;;;4.60;99.90;;;;;;5005181;28;20210;-88
2023/11/17 03:35:40;;;;;;;1.00;1.00;;;4.50;99.90;;;;;;4988589;28;20199;-88
2023/11/17 03:38:13;;;;;;;0.90;0.90;;;4.40;99.90;;;;;;5009526;28;20200;-88
2023/11/17 03:40:44;;;;;;;0.83;0.83;;;4.40;99.90;;;;;;4988399;28;20204;-88
2023/11/17 03:43:13;;;;;;;0.80;0.80;;;4.30;99.90;;;;;;5009234;28;20218;-88
2023/11/17 03:45:40;;;;;;;1.00;1.00;;;4.30;99.90;;;;;;4992835;28;20226;-88
2023/11/17 03:48:07;;;;;;;0.90;0.90;;;4.30;99.90;;;;;;4967137;28;20228;-88
2023/11/17 03:50:35;;;;;;;1.00;1.00;;;4.40;99.90;;;;;;5010875;28;20578;-88
2023/11/17 03:53:02;;;;;;;1.23;0.93;;;4.40;99.90;;;;;;5005303;28;20203;-88
2023/11/17 03:55:31;;;;;;;1.10;1.10;;;4.30;99.90;;;;;;5006244;28;20294;-88
2023/11/17 03:57:57;;;;;;;1.20;1.10;;;4.20;99.90;;;;;;5004021;28;20202;-87
2023/11/17 04:00:26;;;;;;;1.27;1.17;;;4.30;99.90;;;;;;5005472;28;20201;-88
2023/11/17 04:02:57;;;;;;;2.40;1.10;;;4.30;99.90;;;;;;4989509;28;20581;-87
2023/11/17 04:05:25;;;;;;;1.37;1.27;;;4.30;99.90;;;;;;5006495;28;20195;-88
2023/11/17 04:07:55;;;;;;;2.80;1.23;;;4.30;99.90;;;;;;4984702;28;20210;-87
2023/11/17 04:10:23;;;;;;;0.97;0.97;;;4.30;99.90;;;;;;4990655;28;21311;-87
2023/11/17 04:12:52;;;;;;;1.10;1.10;;;4.30;99.90;;;;;;5010737;28;20192;-87
2023/11/17 04:15:19;;;;;;;1.20;1.10;;;4.30;99.90;;;;;;5010423;28;20242;-87
2023/11/17 04:17:46;;;;;;;1.20;1.10;;;4.30;99.90;;;;;;4989440;28;20198;-88
2023/11/17 04:20:14;;;;;;;0.90;0.90;;;4.30;99.90;;;;;;5014920;28;20656;-87
2023/11/17 04:22:45;;;;;;;1.20;1.20;;;4.30;99.90;;;;;;5010589;28;20203;-87
2023/11/17 04:25:15;;;;;;;1.27;1.10;;;4.30;99.90;;;;;;4990444;28;20694;-88
2023/11/17 04:27:43;;;;;;;2.30;1.10;;;4.30;99.90;;;;;;4987515;28;20211;-88
2023/11/17 04:30:13;;;;;;;1.00;1.00;;;4.30;99.90;;;;;;4991176;28;20211;-88
2023/11/17 04:32:40;;;;;;;1.23;1.23;;;4.30;99.90;;;;;;4999251;28;20643;-88
2023/11/17 04:35:08;;;;;;;0.97;0.97;;;4.30;99.90;;;;;;5007130;28;20250;-88
2023/11/17 04:37:38;;;;;;;1.10;1.10;;;4.20;99.90;;;;;;5001477;28;20204;-88
2023/11/17 04:40:09;;;;;;;0.93;0.93;;;4.20;99.90;;;;;;4987761;28;20231;-87
2023/11/17 04:42:36;;;;;;;1.00;1.00;;;4.20;99.90;;;;;;4981962;28;20290;-87
2023/11/17 04:45:07;;;;;;;0.83;0.80;;;4.20;99.90;;;;;;5003813;28;20234;-87
2023/11/17 04:47:39;;;;;;;0.67;0.67;;;4.20;99.90;;;;;;5007710;28;20237;-88
2023/11/17 04:50:08;;;;;;;0.80;0.80;;;4.10;99.90;;;;;;4995725;28;20203;-87
2023/11/17 04:52:35;;;;;;;0.80;0.80;;;4.10;99.90;;;;;;5009615;28;20227;-87
2023/11/17 04:55:05;;;;;;;0.80;0.80;;;4.00;99.90;;;;;;5011317;28;20233;-87
2023/11/17 04:57:33;;;;;;;1.70;1.03;;;4.00;99.90;;;;;;4973908;28;20215;-88
2023/11/17 05:00:04;;;;;;;0.70;0.70;;;4.00;99.90;;;;;;4992072;28;20239;-87
2023/11/17 05:02:33;;;;;;;0.70;0.70;;;3.90;99.90;;;;;;5006053;28;20211;-88
2023/11/17 05:05:04;;;;;;;0.70;0.70;;;3.90;99.90;;;;;;5008183;28;20915;-87
2023/11/17 05:07:30;;;;;;;0.77;0.70;;;4.00;99.90;;;;;;5004964;28;20218;-89
2023/11/17 05:09:57;;;;;;;1.00;1.00;;;4.00;99.90;;;;;;5005997;28;20200;-88
2023/11/17 05:12:24;;;;;;;0.90;0.90;;;4.00;99.90;;;;;;5009431;28;20199;-88
2023/11/17 05:14:52;;;;;;;0.70;0.70;;;4.10;99.90;;;;;;5008058;28;20206;-88
2023/11/17 05:17:22;;;;;;;0.70;0.70;;;4.00;99.90;;;;;;4995757;28;20203;-88
2023/11/17 05:19:49;;;;;;;0.60;0.60;;;3.90;99.90;;;;;;5009597;28;20207;-88
2023/11/17 05:22:18;;;;;;;1.00;1.00;;;3.90;99.90;;;;;;5011665;28;20576;-88
2023/11/17 05:24:45;;;;;;;0.80;0.80;;;3.90;99.90;;;;;;5005676;28;20238;-88
2023/11/17 05:27:11;;;;;;;0.87;0.80;;;3.90;99.90;;;;;;5010811;28;20204;-87
2023/11/17 05:29:38;;;;;;;1.00;1.00;;;3.90;99.90;;;;;;5010768;28;20225;-87
2023/11/17 05:32:07;;;;;;;0.90;0.90;;;3.90;99.90;;;;;;4989715;28;20207;-86
2023/11/17 05:34:35;;;;;;;1.00;1.00;;;3.90;99.90;;;;;;4995308;28;20207;-87
2023/11/17 05:37:01;;;;;;;1.43;1.20;;;4.00;99.90;;;;;;5011701;28;20199;-88
2023/11/17 05:39:30;;;;;;;1.30;1.20;;;4.00;99.90;;;;;;5010703;28;20214;-89
2023/11/17 05:41:57;;;;;;;1.30;1.20;;;3.90;99.90;;;;;;5012217;28;20206;-88
2023/11/17 05:44:25;;;;;;;1.30;1.20;;;3.90;99.90;;;;;;5010199;28;20622;-88
2023/11/17 05:46:52;;;;;;;1.17;1.17;;;3.90;99.90;;;;;;4994773;28;20214;-90
2023/11/17 05:49:20;;;;;;;1.50;1.40;;;4.00;99.90;;;;;;4995999;28;20196;-90
2023/11/17 05:51:48;;;;;;;1.50;1.40;;;4.00;99.90;;;;;;5015487;28;20239;-89
2023/11/17 05:54:16;;;;;;;1.97;1.87;;;3.90;99.90;;;;;;5006034;28;20218;-89
2023/11/17 05:56:45;;;;;;;1.50;1.40;;;4.00;99.90;;;;;;5011755;28;20294;-89
2023/11/17 05:59:12;;;;;;;1.50;1.40;;;4.00;99.90;;;;;;4993452;28;20227;-89
2023/11/17 06:01:41;;;;;;;1.87;1.63;;;4.10;99.90;;;;;;5015638;28;20199;-88
2023/11/17 06:04:11;;;;;;;1.80;1.70;;;4.10;99.90;;;;;;5009041;28;20243;-87
2023/11/17 06:06:39;;;;;;;2.13;1.50;;;4.10;99.90;;;;;;5010114;28;20191;-87
2023/11/17 06:09:06;;;;;;;2.00;1.80;;;4.10;99.90;;;;;;4990159;28;20207;-90
2023/11/17 06:11:36;;;;;;;2.23;1.83;;;4.00;99.90;;;;;;4989637;28;20649;-87
2023/11/17 06:14:04;;;;;;;2.07;1.90;;;4.10;99.90;;;;;;5005706;28;20210;-87
2023/11/17 06:16:33;;;;;;;2.60;1.97;;;4.10;99.90;;;;;;5007239;28;20646;-88
2023/11/17 06:19:01;;;;;;;3.17;1.83;;;4.20;99.90;;;;;;4996718;28;20258;-91
2023/11/17 06:21:28;;;;;;;1.73;1.63;;;4.20;99.90;;;;;;5016273;28;20203;-89
2023/11/17 06:23:55;;;;;;;2.30;2.10;;;4.10;99.90;;;;;;5010171;28;20233;-88
2023/11/17 06:26:22;;;;;;;2.30;2.00;;;4.10;99.90;;;;;;5011593;28;20654;-88
2023/11/17 06:28:50;;;;;;;1.90;1.80;;;4.20;99.90;;;;;;5008388;28;20204;-87
2023/11/17 06:31:19;;;;;;;1.90;1.80;;;4.10;99.90;;;;;;5009348;28;20198;-88
2023/11/17 06:33:46;;;;;;;1.80;1.70;;;4.30;99.90;;;;;;4994087;28;20643;-88
2023/11/17 06:36:12;;;;;;;1.90;1.80;;;4.20;99.90;;;;;;5005834;28;20207;-88
2023/11/17 06:38:39;;;;;;;2.00;1.73;;;4.30;99.90;;;;;;4999962;28;20207;-88
2023/11/17 06:41:07;;;;;;;2.40;2.20;;;4.20;99.90;;;;;;4993564;28;20191;-88
2023/11/17 06:43:33;;;;;;;3.57;2.00;;;4.30;99.90;;;;;;5011847;28;20250;-88
2023/11/17 06:46:01;;;;;;;2.37;2.17;;;4.20;99.90;;;;;;4988142;28;20204;-88
2023/11/17 06:48:29;;;;;;;2.37;2.17;;;4.20;99.90;;;;;;4988431;28;20228;-88
2023/11/17 06:50:57;;;;;;;1.80;1.70;;;4.30;99.90;;;;;;5005388;28;20226;-88
2023/11/17 06:53:25;;;;;;;2.47;2.27;;;4.30;99.90;;;;;;5008482;28;20207;-88
2023/11/17 06:55:54;;;;;;;2.20;2.00;;;4.30;99.90;;;;;;5003994;28;20222;-87
2023/11/17 06:58:22;;;;;;;1.93;1.83;;;4.30;99.90;;;;;;5005035;28;20652;-88
2023/11/17 07:00:51;;;;;;;1.90;1.80;;;4.30;99.90;;;;;;4984307;28;20206;-88
2023/11/17 07:03:18;;;;;;;2.83;1.90;;;4.30;99.90;;;;;;4999116;28;20196;-88
2023/11/17 07:05:46;;;;;;;5.13;1.80;;;4.40;99.90;;;;;;5010629;28;20203;-88
2023/11/17 07:08:13;;;;;;;3.43;2.17;;;4.30;99.90;;;;;;5007910;28;20656;-90
2023/11/17 07:10:43;;;;;;;2.00;1.80;;;4.40;99.90;;;;;;5007483;28;20211;-88
2023/11/17 07:13:11;;;;;;;2.23;1.80;;;4.40;99.90;;;;;;5001980;28;20203;-89
2023/11/17 07:15:40;;;;;;;2.67;1.87;;;4.40;99.90;;;;;;5002796;28;20203;-88
2023/11/17 07:18:07;;;;;;;5.57;2.10;;;4.40;99.90;;;;;;5008777;28;20660;-88
2023/11/17 07:20:34;;;;;;;2.20;2.00;;;4.40;99.90;;;;;;4971661;28;20231;-88
2023/11/17 07:23:03;;;;;;;3.27;2.20;;;4.40;99.90;;;;;;4994911;28;20202;-89
2023/11/17 07:25:29;;;;;;;3.13;2.00;;;4.40;99.90;;;;;;5020132;28;20219;-88
2023/11/17 07:27:56;;;;;;;2.20;2.00;;;4.50;99.90;;;;;;5013249;28;20190;-87
2023/11/17 07:30:24;;;;;;;4.23;1.97;;;4.50;99.90;;;;;;5026626;28;20271;-86
2023/11/17 07:32:51;;;;;;;2.33;1.73;;;4.60;99.90;;;;;;5013456;28;20220;-91
2023/11/17 07:35:17;;;;;;;2.47;1.80;;;4.60;99.90;;;;;;4972427;28;20204;-90
2023/11/17 07:37:45;;;;;;;2.47;1.93;;;4.50;99.90;;;;;;5009685;28;20195;-88
2023/11/17 07:40:13;;;;;;;3.30;1.93;;;4.60;99.90;;;;;;4987514;28;20250;-89
2023/11/17 07:42:40;;;;;;;2.23;2.00;;;4.60;99.90;;;;;;4990933;28;20653;-89
2023/11/17 07:45:10;;;;;;;1.83;1.73;;;4.50;99.90;;;;;;5000989;28;20218;-91
2023/11/17 07:47:38;;;;;;;2.47;1.73;;;4.60;99.90;;;;;;5004087;28;20207;-91
2023/11/17 07:50:08;;;;;;;1.83;1.70;;;4.60;99.90;;;;;;5007951;28;20631;-89
2023/11/17 07:52:35;;;;;;;3.83;1.83;;;4.60;99.90;;;;;;4989678;28;20282;-89
2023/11/17 07:55:03;;;;;;;2.27;1.97;;;4.60;99.90;;;;;;5011075;28;20668;-86
2023/11/17 07:57:31;;;;;;;2.17;1.93;;;4.60;99.90;;;;;;5002480;28;20197;-86
2023/11/17 07:59:59;;;;;;;3.40;1.90;;;4.60;99.90;;;;;;5008210;28;20230;-87
2023/11/17 08:02:26;;;;;;;1.80;1.70;;;4.60;99.90;;;;;;5006237;28;20203;-89
2023/11/17 08:04:54;;;;;;;2.63;2.10;;;4.80;99.90;;;;;;4991868;28;20224;-90
2023/11/17 08:07:21;;;;;;;2.47;1.77;;;4.80;99.90;;;;;;4982627;28;20192;-89
2023/11/17 08:09:48;;;;;;;2.50;2.00;;;4.70;99.90;;;;;;5007778;28;20196;-91
2023/11/17 08:12:15;;;;;;;2.40;1.97;;;4.70;99.90;;;;;;5003850;28;20195;-91
2023/11/17 08:14:43;;;;;;;2.70;1.90;;;4.70;99.90;;;;;;4970861;28;20273;-89
2023/11/17 08:17:11;;;;;;;4.77;2.00;;;4.70;99.90;;;;;;5008304;28;20206;-88
2023/11/17 08:19:40;;;;;;;5.13;2.00;;;4.70;99.90;;;;;;5004580;28;20586;-87
2023/11/17 08:22:08;;;;;;;8.00;2.43;;;4.70;99.90;;;;;;4991166;28;20196;-87
2023/11/17 08:24:35;;;;;;;3.40;2.10;;;4.80;99.90;;;;;;5003817;28;20215;-87
2023/11/17 08:27:02;;;;;;;3.80;2.30;;;4.80;99.90;;;;;;5001055;28;20199;-85
2023/11/17 08:29:29;;;;;;;2.83;2.47;;;4.80;99.90;;;;;;4984767;28;20206;-88
2023/11/17 08:31:57;;;;;;;3.07;2.63;;;4.80;99.90;;;;;;5001184;28;20203;-88
2023/11/17 08:34:24;;;;;;;4.80;2.57;;;4.80;99.90;;;;;;4986246;28;20192;-89
2023/11/17 08:36:51;;;;;;;3.23;2.50;;;4.80;99.90;;;;;;5003204;28;20754;-88
2023/11/17 08:39:26;;;;;;;3.63;2.50;;;4.80;99.90;;;;;;5000587;28;20200;-88
2023/11/17 08:41:54;;;;;;;4.03;2.47;;;4.90;99.90;;;;;;5003914;28;20249;-90
2023/11/17 08:44:22;;;;;;;3.23;2.47;;;4.90;99.90;;;;;;4984399;28;20309;-88
2023/11/17 08:46:49;;;;;;;3.10;2.40;;;4.90;99.90;;;;;;5009281;28;20200;-88
2023/11/17 08:49:17;;;;;;;4.50;2.30;;;4.90;99.90;;;;;;5004663;28;20209;-88
2023/11/17 08:51:46;;;;;;;3.37;2.50;;;4.90;99.90;;;;;;4985154;28;20294;-88
2023/11/17 08:54:13;;;;;;;6.83;2.80;;;4.90;99.90;;;;;;4990162;28;20553;-88
2023/11/17 08:56:41;;;;;;;5.23;3.27;;;4.90;99.90;;;;;;5003497;28;20221;-88
2023/11/17 08:59:08;;;;;;;5.50;2.97;;;5.00;99.90;;;;;;5001500;28;20286;-88
2023/11/17 09:01:35;;;;;;;6.47;2.93;;;5.10;99.90;;;;;;5006416;28;20286;-88
2023/11/17 09:04:02;;;;;;;4.43;2.93;;;5.10;99.90;;;;;;4987867;28;20199;-88
2023/11/17 09:06:30;;;;;;;5.43;3.00;;;5.10;99.90;;;;;;4990475;28;20616;-88
2023/11/17 09:08:57;;;;;;;4.57;3.13;;;5.10;99.90;;;;;;5013953;28;20199;-87
2023/11/17 09:11:25;;;;;;;7.23;3.30;;;5.20;99.90;;;;;;5002871;28;20221;-88
2023/11/17 09:13:52;;;;;;;5.13;3.07;;;5.20;99.90;;;;;;4986878;28;20671;-88
2023/11/17 09:16:20;;;;;;;7.87;3.77;;;5.20;99.90;;;;;;5006503;28;20592;-89
2023/11/17 09:18:47;;;;;;;5.13;3.23;;;5.20;99.90;;;;;;4993905;28;20200;-87
2023/11/17 09:21:14;;;;;;;5.43;3.20;;;5.10;99.90;;;;;;5005897;28;20196;-88
2023/11/17 09:23:42;;;;;;;44.87;30.93;;;5.20;99.90;;;;;;4995241;28;20291;-88
2023/11/17 09:26:09;;;;;;;5.73;3.70;;;5.50;99.90;;;;;;4997816;28;20219;-88
2023/11/17 09:28:36;;;;;;;4.37;3.70;;;5.50;99.90;;;;;;4980612;28;20215;-88
2023/11/17 09:31:03;;;;;;;11.27;8.40;;;5.60;99.90;;;;;;5002477;28;20195;-89
2023/11/17 09:33:30;;;;;;;3.67;2.93;;;5.50;99.90;;;;;;5009831;28;20310;-88
2023/11/17 09:36:00;;;;;;;3.40;3.00;;;5.40;99.90;;;;;;5009513;28;20203;-88
2023/11/17 09:38:27;;;;;;;4.50;2.90;;;5.30;99.90;;;;;;5014466;28;20548;-88
2023/11/17 09:40:55;;;;;;;5.40;4.67;;;5.40;99.90;;;;;;5014948;28;20217;-87
2023/11/17 09:43:23;;;;;;;6.70;5.37;;;5.40;99.90;;;;;;5000358;28;20270;-87
2023/11/17 09:45:52;;;;;;;3.10;2.83;;;5.30;99.90;;;;;;5009240;28;20243;-88
2023/11/17 09:48:21;;;;;;;3.70;2.70;;;5.60;99.90;;;;;;4998669;28;20227;-89
2023/11/17 09:50:50;;;;;;;4.87;2.80;;;5.60;99.90;;;;;;5006671;28;20254;-88
2023/11/17 09:53:18;;;;;;;3.70;2.90;;;5.50;99.90;;;;;;5005490;28;20207;-88
2023/11/17 09:55:48;;;;;;;4.07;3.23;;;5.40;99.90;;;;;;5010620;28;20207;-87
2023/11/17 09:58:16;;;;;;;15.27;11.03;;;5.40;99.90;;;;;;4991124;28;20200;-88
2023/11/17 10:00:45;;;;;;;3.70;3.10;;;5.50;99.90;;;;;;5009008;28;20203;-87
2023/11/17 10:03:13;;;;;;;4.03;3.00;;;5.50;99.90;;;;;;4989359;28;20682;-88
2023/11/17 10:05:41;;;;;;;3.87;2.97;;;5.40;99.90;;;;;;5008557;28;20310;-89
2023/11/17 10:08:11;;;;;;;5.43;4.27;;;5.30;99.90;;;;;;4987472;28;20297;-88
2023/11/17 10:10:42;;;;;;;6.23;3.93;;;5.30;99.90;;;;;;5003943;28;20571;-88
2023/11/17 10:13:12;;;;;;;5.20;4.40;;;5.40;99.90;;;;;;5009261;28;20261;-88
2023/11/17 10:15:44;;;;;;;13.13;9.97;;;5.40;99.90;;;;;;5005344;28;20208;-88
2023/11/17 10:18:17;;;;;;;8.00;6.10;;;5.50;99.90;;;;;;5010158;28;20203;-88
2023/11/17 10:20:45;;;;;;;3.57;3.10;;;5.60;99.90;;;;;;5012121;28;20206;-88
2023/11/17 10:23:14;;;;;;;12.60;9.57;;;5.50;99.90;;;;;;5001923;28;20598;-88
2023/11/17 10:25:43;;;;;;;2.27;2.00;;;5.50;99.90;;;;;;4990092;28;20227;-88
2023/11/17 10:28:10;;;;;;;2.10;1.90;;;5.50;99.90;;;;;;5009724;28;20195;-88
2023/11/17 10:30:37;;;;;;;2.10;1.90;;;5.40;99.90;;;;;;5008441;28;20207;-89
2023/11/17 10:33:14;;;;;;;1.70;1.60;;;5.40;99.90;;;;;;4986681;28;20200;-88
2023/11/17 10:35:43;;;;;;;2.10;1.90;;;5.40;99.90;;;;;;5006583;28;20282;-87
2023/11/17 10:38:15;;;;;;;6.40;5.40;;;5.40;99.90;;;;;;5008464;28;20234;-88
2023/11/17 10:40:42;;;;;;;1.93;1.80;;;5.40;99.90;;;;;;5005378;28;20579;-88
2023/11/17 10:43:14;;;;;;;6.57;5.53;;;5.40;99.90;;;;;;4988514;28;20200;-88
2023/11/17 10:45:43;;;;;;;2.00;1.80;;;5.40;99.90;;;;;;5003912;28;20567;-88
2023/11/17 10:48:13;;;;;;;3.73;2.23;;;5.40;99.90;;;;;;4998326;28;20286;-87
2023/11/17 10:50:42;;;;;;;2.53;2.30;;;5.30;99.90;;;;;;4992088;28;20199;-88
2023/11/17 10:53:19;;;;;;;2.00;1.80;;;5.50;99.90;;;;;;5000707;28;20231;-87
2023/11/17 10:55:48;;;;;;;2.70;1.50;;;5.60;99.90;;;;;;5011773;28;20249;-88
2023/11/17 10:58:16;;;;;;;2.83;2.63;;;5.60;99.90;;;;;;5012034;28;20195;-88
2023/11/17 11:00:44;;;;;;;2.43;2.23;;;5.70;99.90;;;;;;5005618;28;20200;-88
2023/11/17 11:03:13;;;;;;;3.13;1.97;;;5.70;99.90;;;;;;5010901;28;20191;-87
2023/11/17 11:05:42;;;;;;;2.70;2.27;;;5.80;99.90;;;;;;5004062;28;20215;-88
2023/11/17 11:08:14;;;;;;;2.10;1.90;;;5.90;99.90;;;;;;4991366;28;20287;-87
2023/11/17 11:10:54;;;;;;;2.10;1.90;;;5.80;99.90;;;;;;5005865;28;20665;-87
2023/11/17 11:13:28;;;;;;;1.90;1.80;;;5.80;99.90;;;;;;5000889;28;20656;-88
2023/11/17 11:16:05;;;;;;;8.23;6.03;;;5.70;99.90;;;;;;5010166;28;20199;-87
2023/11/17 11:18:36;;;;;;;14.43;11.77;;;5.70;99.90;;;;;;5010451;28;20293;-87
2023/11/17 11:21:06;;;;;;;2.80;2.47;;;5.80;99.90;;;;;;5007891;28;20212;-87
2023/11/17 11:23:34;;;;;;;4.67;3.17;;;5.80;99.90;;;;;;5007539;28;20203;-88
2023/11/17 11:26:03;;;;;;;7.30;6.53;;;5.80;99.90;;;;;;5001408;28;20234;-88
2023/11/17 11:28:32;;;;;;;3.42;2.15;;;5.90;99.90;;;;;;5006894;28;20206;-88
2023/11/17 11:31:00;;;;;;;6.70;5.30;;;5.90;99.90;;;;;;5007110;28;20254;-88
2023/11/17 11:33:30;;;;;;;2.97;2.73;;;5.80;99.90;;;;;;4987294;28;20235;-87
2023/11/17 11:35:59;;;;;;;2.80;2.60;;;6.00;99.90;;;;;;5004138;28;20715;-88
2023/11/17 11:38:29;;;;;;;4.23;3.57;;;6.00;99.90;;;;;;4992142;28;21516;-87
2023/11/17 11:40:59;;;;;;;11.63;9.53;;;6.10;99.90;;;;;;5008429;28;20218;-87
2023/11/17 11:43:30;;;;;;;10.37;8.50;;;6.30;99.90;;;;;;4990063;28;20219;-87
2023/11/17 11:45:57;;;;;;;4.37;3.97;;;6.50;99.90;;;;;;5011172;28;20226;-87
2023/11/17 11:48:30;;;;;;;3.47;2.38;;;6.60;99.90;;;;;;5005223;28;20196;-87
2023/11/17 11:51:02;;;;;;;3.08;2.63;;;6.40;99.90;;;;;;5010609;28;21482;-87
2023/11/17 11:53:55;;;;;;;15.73;11.98;;;6.50;99.90;;;;;;4984951;28;21559;-87
2023/11/17 11:56:27;;;;;;;4.53;3.58;;;6.40;99.90;;;;;;4986985;28;20282;-87
2023/11/17 11:58:56;;;;;;;6.30;5.47;;;6.40;99.90;;;;;;5006532;28;20199;-88
2023/11/17 12:01:23;;;;;;;3.00;2.10;;;6.40;99.90;;;;;;4999680;28;20199;-87
2023/11/17 12:03:53;;;;;;;2.28;2.10;;;6.40;99.90;;;;;;5008105;28;20199;-88
2023/11/17 12:06:22;;;;;;;2.20;2.00;;;6.30;99.90;;;;;;5009086;28;20314;-88
2023/11/17 12:08:53;;;;;;;13.25;10.93;;;6.20;99.90;;;;;;5005439;28;20286;-88
2023/11/17 12:11:22;;;;;;;14.43;11.60;;;6.10;99.90;;;;;;5005525;28;20204;-87
2023/11/17 12:13:51;;;;;;;5.35;4.85;;;6.10;99.90;;;;;;4986808;28;20203;-88
2023/11/17 12:16:22;;;;;;;3.13;2.83;;;6.20;99.90;;;;;;5005679;28;20207;-87
2023/11/17 12:18:50;;;;;;;7.07;6.13;;;6.30;99.90;;;;;;5006410;28;20210;-87
2023/11/17 12:21:18;;;;;;;4.10;3.60;;;6.20;99.90;;;;;;5001966;28;20230;-88
2023/11/17 12:23:55;;;;;;;2.70;2.45;;;6.30;99.90;;;;;;4979120;28;20199;-87
2023/11/17 12:26:25;;;;;;;2.97;2.30;;;6.30;99.90;;;;;;5005230;28;20226;-87
2023/11/17 12:28:53;;;;;;;2.17;2.00;;;6.30;99.90;;;;;;5003429;28;20286;-87
2023/11/17 12:31:20;;;;;;;3.93;2.30;;;6.20;99.90;;;;;;5002686;28;20206;-87
2023/11/17 12:33:49;;;;;;;2.47;2.27;;;6.40;99.90;;;;;;5006419;28;20670;-89
2023/11/17 12:36:18;;;;;;;2.28;2.08;;;6.30;99.90;;;;;;5002953;28;20253;-89
2023/11/17 12:38:51;;;;;;;4.50;2.50;;;6.30;99.90;;;;;;5008314;28;20199;-89
2023/11/17 12:41:22;;;;;;;3.83;2.25;;;6.40;99.90;;;;;;5009948;28;20212;-88
2023/11/17 12:43:50;;;;;;;3.20;2.90;;;6.40;99.90;;;;;;5000325;28;20200;-87
2023/11/17 12:46:18;;;;;;;3.60;2.65;;;6.40;99.90;;;;;;5001304;28;20285;-88
2023/11/17 12:48:47;;;;;;;3.58;2.97;;;6.50;99.90;;;;;;4999156;28;20205;-87
2023/11/17 12:51:24;;;;;;;3.40;2.70;;;6.50;99.90;;;;;;4999028;28;20219;-87
2023/11/17 12:53:52;;;;;;;3.00;2.70;;;6.60;99.90;;;;;;5003924;28;20191;-87
2023/11/17 12:56:22;;;;;;;4.05;2.90;;;6.60;99.90;;;;;;4997909;28;20199;-87
2023/11/17 12:58:49;;;;;;;3.22;2.92;;;6.80;99.90;;;;;;5003595;28;20199;-87
2023/11/17 13:01:17;;;;;;;3.85;2.90;;;6.90;99.90;;;;;;4988784;28;20286;-86
2023/11/17 13:03:46;;;;;;;3.58;3.00;;;6.90;99.90;;;;;;5004469;28;20211;-88
2023/11/17 13:06:14;;;;;;;3.03;2.67;;;6.80;99.90;;;;;;4991450;28;20223;-87